sensor_id;sensor_type;location;lat;lon;timestamp;P1;durP1;ratioP1;P2;durP2;ratioP2
9720;SDS011;4899;42.644;23.366;2024-02-14T00:00:33;5.83;;;5.33;;
9720;SDS011;4899;42.644;23.366;2024-02-14T00:02:59;7.53;;;6.83;;
9720;SDS011;4899;42.644;23.366;2024-02-14T00:05:24;6.60;;;5.87;;
9720;SDS011;4899;42.644;23.366;2024-02-14T00:07:50;6.33;;;5.70;;
9720;SDS011;4899;42.644;23.366;2024-02-14T00:10:15;7.37;;;6.70;;
9720;SDS011;4899;42.644;23.366;2024-02-14T00:12:40;6.80;;;5.93;;
9720;SDS011;4899;42.644;23.366;2024-02-14T00:15:06;6.20;;;5.67;;
9720;SDS011;4899;42.644;23.366;2024-02-14T00:17:32;6.53;;;5.93;;
9720;SDS011;4899;42.644;23.366;2024-02-14T00:19:59;7.03;;;6.43;;
9720;SDS011;4899;42.644;23.366;2024-02-14T00:22:25;7.27;;;6.57;;
9720;SDS011;4899;42.644;23.366;2024-02-14T00:24:50;6.77;;;6.13;;
9720;SDS011;4899;42.644;23.366;2024-02-14T00:27:15;6.50;;;5.97;;
9720;SDS011;4899;42.644;23.366;2024-02-14T00:29:42;6.57;;;5.97;;
9720;SDS011;4899;42.644;23.366;2024-02-14T00:32:10;7.03;;;6.33;;
9720;SDS011;4899;42.644;23.366;2024-02-14T00:34:35;7.40;;;6.70;;
9720;SDS011;4899;42.644;23.366;2024-02-14T00:37:01;6.67;;;5.97;;
9720;SDS011;4899;42.644;23.366;2024-02-14T00:39:26;7.47;;;6.80;;
9720;SDS011;4899;42.644;23.366;2024-02-14T00:41:51;6.57;;;5.97;;
9720;SDS011;4899;42.644;23.366;2024-02-14T00:44:18;7.33;;;6.57;;
9720;SDS011;4899;42.644;23.366;2024-02-14T00:46:44;6.93;;;6.23;;
9720;SDS011;4899;42.644;23.366;2024-02-14T00:49:10;7.07;;;6.47;;
9720;SDS011;4899;42.644;23.366;2024-02-14T00:51:35;6.87;;;6.17;;
9720;SDS011;4899;42.644;23.366;2024-02-14T00:54:02;7.37;;;6.67;;
9720;SDS011;4899;42.644;23.366;2024-02-14T00:56:28;6.20;;;5.67;;
9720;SDS011;4899;42.644;23.366;2024-02-14T00:58:53;7.37;;;6.60;;
9720;SDS011;4899;42.644;23.366;2024-02-14T01:01:18;7.10;;;6.50;;
9720;SDS011;4899;42.644;23.366;2024-02-14T01:03:43;6.67;;;6.00;;
9720;SDS011;4899;42.644;23.366;2024-02-14T01:06:09;7.63;;;6.93;;
9720;SDS011;4899;42.644;23.366;2024-02-14T01:08:34;7.20;;;6.50;;
9720;SDS011;4899;42.644;23.366;2024-02-14T01:11:01;8.53;;;6.87;;
9720;SDS011;4899;42.644;23.366;2024-02-14T01:13:26;7.73;;;6.97;;
9720;SDS011;4899;42.644;23.366;2024-02-14T01:15:51;7.23;;;6.53;;
9720;SDS011;4899;42.644;23.366;2024-02-14T01:18:17;8.07;;;7.27;;
9720;SDS011;4899;42.644;23.366;2024-02-14T01:20:42;8.27;;;7.57;;
9720;SDS011;4899;42.644;23.366;2024-02-14T01:23:07;7.57;;;6.90;;
9720;SDS011;4899;42.644;23.366;2024-02-14T01:25:33;9.70;;;7.43;;
9720;SDS011;4899;42.644;23.366;2024-02-14T01:27:58;8.47;;;7.30;;
9720;SDS011;4899;42.644;23.366;2024-02-14T01:30:24;8.23;;;7.43;;
9720;SDS011;4899;42.644;23.366;2024-02-14T01:32:50;8.60;;;7.70;;
9720;SDS011;4899;42.644;23.366;2024-02-14T01:35:15;8.90;;;7.97;;
9720;SDS011;4899;42.644;23.366;2024-02-14T01:37:41;8.17;;;7.07;;
9720;SDS011;4899;42.644;23.366;2024-02-14T01:40:06;8.10;;;7.30;;
9720;SDS011;4899;42.644;23.366;2024-02-14T01:42:32;7.30;;;6.70;;
9720;SDS011;4899;42.644;23.366;2024-02-14T01:44:58;8.50;;;7.60;;
9720;SDS011;4899;42.644;23.366;2024-02-14T01:47:23;7.57;;;6.83;;
9720;SDS011;4899;42.644;23.366;2024-02-14T01:49:49;7.40;;;6.70;;
9720;SDS011;4899;42.644;23.366;2024-02-14T01:52:14;8.30;;;7.60;;
9720;SDS011;4899;42.644;23.366;2024-02-14T01:54:40;8.57;;;7.63;;
9720;SDS011;4899;42.644;23.366;2024-02-14T01:57:06;7.77;;;7.07;;
9720;SDS011;4899;42.644;23.366;2024-02-14T01:59:33;7.90;;;6.93;;
9720;SDS011;4899;42.644;23.366;2024-02-14T02:02:00;8.13;;;7.30;;
9720;SDS011;4899;42.644;23.366;2024-02-14T02:04:25;8.27;;;7.47;;
9720;SDS011;4899;42.644;23.366;2024-02-14T02:06:50;8.10;;;7.40;;
9720;SDS011;4899;42.644;23.366;2024-02-14T02:09:16;7.97;;;7.17;;
9720;SDS011;4899;42.644;23.366;2024-02-14T02:11:42;7.93;;;7.23;;
9720;SDS011;4899;42.644;23.366;2024-02-14T02:14:07;8.90;;;8.03;;
9720;SDS011;4899;42.644;23.366;2024-02-14T02:16:33;8.33;;;7.47;;
9720;SDS011;4899;42.644;23.366;2024-02-14T02:18:58;8.40;;;7.50;;
9720;SDS011;4899;42.644;23.366;2024-02-14T02:21:24;8.23;;;7.43;;
9720;SDS011;4899;42.644;23.366;2024-02-14T02:23:49;8.37;;;7.57;;
9720;SDS011;4899;42.644;23.366;2024-02-14T02:26:15;7.80;;;7.10;;
9720;SDS011;4899;42.644;23.366;2024-02-14T02:28:40;7.97;;;7.27;;
9720;SDS011;4899;42.644;23.366;2024-02-14T02:31:05;8.03;;;7.23;;
9720;SDS011;4899;42.644;23.366;2024-02-14T02:33:32;9.63;;;7.90;;
9720;SDS011;4899;42.644;23.366;2024-02-14T02:35:57;6.73;;;6.13;;
9720;SDS011;4899;42.644;23.366;2024-02-14T02:38:23;7.80;;;7.00;;
9720;SDS011;4899;42.644;23.366;2024-02-14T02:40:48;8.60;;;6.90;;
9720;SDS011;4899;42.644;23.366;2024-02-14T02:43:13;7.93;;;7.07;;
9720;SDS011;4899;42.644;23.366;2024-02-14T02:45:39;7.43;;;6.70;;
9720;SDS011;4899;42.644;23.366;2024-02-14T02:48:04;7.07;;;6.47;;
9720;SDS011;4899;42.644;23.366;2024-02-14T02:50:29;8.30;;;7.60;;
9720;SDS011;4899;42.644;23.366;2024-02-14T02:52:55;8.53;;;7.63;;
9720;SDS011;4899;42.644;23.366;2024-02-14T02:55:21;8.53;;;7.73;;
9720;SDS011;4899;42.644;23.366;2024-02-14T02:57:46;8.33;;;7.47;;
9720;SDS011;4899;42.644;23.366;2024-02-14T03:00:12;9.47;;;7.90;;
9720;SDS011;4899;42.644;23.366;2024-02-14T03:02:38;9.13;;;8.23;;
9720;SDS011;4899;42.644;23.366;2024-02-14T03:05:05;7.47;;;6.77;;
9720;SDS011;4899;42.644;23.366;2024-02-14T03:07:35;8.00;;;7.23;;
9720;SDS011;4899;42.644;23.366;2024-02-14T03:10:01;8.60;;;7.70;;
9720;SDS011;4899;42.644;23.366;2024-02-14T03:12:28;7.90;;;7.20;;
9720;SDS011;4899;42.644;23.366;2024-02-14T03:14:55;8.90;;;7.67;;
9720;SDS011;4899;42.644;23.366;2024-02-14T03:17:21;8.17;;;7.43;;
9720;SDS011;4899;42.644;23.366;2024-02-14T03:19:47;8.23;;;7.30;;
9720;SDS011;4899;42.644;23.366;2024-02-14T03:22:13;8.67;;;7.87;;
9720;SDS011;4899;42.644;23.366;2024-02-14T03:24:38;8.17;;;7.37;;
9720;SDS011;4899;42.644;23.366;2024-02-14T03:27:04;7.73;;;6.93;;
9720;SDS011;4899;42.644;23.366;2024-02-14T03:29:30;8.57;;;7.73;;
9720;SDS011;4899;42.644;23.366;2024-02-14T03:31:55;9.13;;;8.10;;
9720;SDS011;4899;42.644;23.366;2024-02-14T03:34:23;9.50;;;7.93;;
9720;SDS011;4899;42.644;23.366;2024-02-14T03:36:50;8.57;;;7.77;;
9720;SDS011;4899;42.644;23.366;2024-02-14T03:39:15;8.73;;;7.93;;
9720;SDS011;4899;42.644;23.366;2024-02-14T03:41:42;8.67;;;7.87;;
9720;SDS011;4899;42.644;23.366;2024-02-14T03:44:07;9.10;;;8.20;;
9720;SDS011;4899;42.644;23.366;2024-02-14T03:46:34;9.13;;;8.23;;
9720;SDS011;4899;42.644;23.366;2024-02-14T03:49:00;8.00;;;7.20;;
9720;SDS011;4899;42.644;23.366;2024-02-14T03:51:25;8.97;;;8.03;;
9720;SDS011;4899;42.644;23.366;2024-02-14T03:53:51;7.83;;;7.13;;
9720;SDS011;4899;42.644;23.366;2024-02-14T03:56:16;8.80;;;7.90;;
9720;SDS011;4899;42.644;23.366;2024-02-14T03:58:42;8.90;;;8.03;;
9720;SDS011;4899;42.644;23.366;2024-02-14T04:01:07;8.30;;;7.53;;
9720;SDS011;4899;42.644;23.366;2024-02-14T04:03:33;6.97;;;6.27;;
9720;SDS011;4899;42.644;23.366;2024-02-14T04:05:58;8.23;;;7.53;;
9720;SDS011;4899;42.644;23.366;2024-02-14T04:08:24;8.40;;;7.47;;
9720;SDS011;4899;42.644;23.366;2024-02-14T04:10:49;8.93;;;8.13;;
9720;SDS011;4899;42.644;23.366;2024-02-14T04:13:15;8.80;;;8.00;;
9720;SDS011;4899;42.644;23.366;2024-02-14T04:15:41;8.00;;;7.30;;
9720;SDS011;4899;42.644;23.366;2024-02-14T04:18:08;9.43;;;8.47;;
9720;SDS011;4899;42.644;23.366;2024-02-14T04:20:33;8.77;;;7.97;;
9720;SDS011;4899;42.644;23.366;2024-02-14T04:22:58;8.37;;;7.57;;
9720;SDS011;4899;42.644;23.366;2024-02-14T04:25:24;8.83;;;8.03;;
9720;SDS011;4899;42.644;23.366;2024-02-14T04:27:49;9.23;;;8.43;;
9720;SDS011;4899;42.644;23.366;2024-02-14T04:30:14;8.43;;;7.53;;
9720;SDS011;4899;42.644;23.366;2024-02-14T04:32:40;8.50;;;7.70;;
9720;SDS011;4899;42.644;23.366;2024-02-14T04:35:05;8.80;;;7.90;;
9720;SDS011;4899;42.644;23.366;2024-02-14T04:37:30;8.77;;;7.97;;
9720;SDS011;4899;42.644;23.366;2024-02-14T04:39:56;8.60;;;7.77;;
9720;SDS011;4899;42.644;23.366;2024-02-14T04:42:21;8.43;;;7.63;;
9720;SDS011;4899;42.644;23.366;2024-02-14T04:44:46;8.90;;;8.10;;
9720;SDS011;4899;42.644;23.366;2024-02-14T04:47:12;10.00;;;8.93;;
9720;SDS011;4899;42.644;23.366;2024-02-14T04:49:37;8.90;;;8.10;;
9720;SDS011;4899;42.644;23.366;2024-02-14T04:52:02;9.63;;;8.73;;
9720;SDS011;4899;42.644;23.366;2024-02-14T04:54:29;9.47;;;8.57;;
9720;SDS011;4899;42.644;23.366;2024-02-14T04:56:54;10.93;;;9.83;;
9720;SDS011;4899;42.644;23.366;2024-02-14T04:59:19;10.37;;;9.37;;
9720;SDS011;4899;42.644;23.366;2024-02-14T05:01:45;10.60;;;9.10;;
9720;SDS011;4899;42.644;23.366;2024-02-14T05:04:11;10.07;;;9.07;;
9720;SDS011;4899;42.644;23.366;2024-02-14T05:06:37;10.53;;;9.37;;
9720;SDS011;4899;42.644;23.366;2024-02-14T05:09:03;11.40;;;9.67;;
9720;SDS011;4899;42.644;23.366;2024-02-14T05:11:29;10.77;;;9.77;;
9720;SDS011;4899;42.644;23.366;2024-02-14T05:13:55;11.60;;;10.50;;
9720;SDS011;4899;42.644;23.366;2024-02-14T05:16:20;13.03;;;11.20;;
9720;SDS011;4899;42.644;23.366;2024-02-14T05:18:46;11.00;;;9.97;;
9720;SDS011;4899;42.644;23.366;2024-02-14T05:21:11;12.30;;;10.97;;
9720;SDS011;4899;42.644;23.366;2024-02-14T05:23:37;12.00;;;10.90;;
9720;SDS011;4899;42.644;23.366;2024-02-14T05:26:02;12.67;;;11.47;;
9720;SDS011;4899;42.644;23.366;2024-02-14T05:28:28;13.03;;;11.73;;
9720;SDS011;4899;42.644;23.366;2024-02-14T05:30:54;11.33;;;10.13;;
9720;SDS011;4899;42.644;23.366;2024-02-14T05:33:19;11.97;;;10.87;;
9720;SDS011;4899;42.644;23.366;2024-02-14T05:35:47;12.47;;;11.17;;
9720;SDS011;4899;42.644;23.366;2024-02-14T05:38:13;12.80;;;11.50;;
9720;SDS011;4899;42.644;23.366;2024-02-14T05:40:38;12.43;;;11.23;;
9720;SDS011;4899;42.644;23.366;2024-02-14T05:43:04;12.10;;;11.00;;
9720;SDS011;4899;42.644;23.366;2024-02-14T05:45:30;12.10;;;10.90;;
9720;SDS011;4899;42.644;23.366;2024-02-14T05:47:55;11.50;;;10.40;;
9720;SDS011;4899;42.644;23.366;2024-02-14T05:50:20;10.97;;;9.87;;
9720;SDS011;4899;42.644;23.366;2024-02-14T05:52:46;11.03;;;9.93;;
9720;SDS011;4899;42.644;23.366;2024-02-14T05:55:11;12.27;;;11.13;;
9720;SDS011;4899;42.644;23.366;2024-02-14T05:57:36;12.57;;;11.27;;
9720;SDS011;4899;42.644;23.366;2024-02-14T06:00:02;13.50;;;11.27;;
9720;SDS011;4899;42.644;23.366;2024-02-14T06:02:28;11.50;;;10.30;;
9720;SDS011;4899;42.644;23.366;2024-02-14T06:04:54;12.30;;;11.10;;
9720;SDS011;4899;42.644;23.366;2024-02-14T06:07:19;13.17;;;11.87;;
9720;SDS011;4899;42.644;23.366;2024-02-14T06:09:44;11.07;;;9.97;;
9720;SDS011;4899;42.644;23.366;2024-02-14T06:12:10;11.73;;;10.53;;
9720;SDS011;4899;42.644;23.366;2024-02-14T06:14:36;11.00;;;9.90;;
9720;SDS011;4899;42.644;23.366;2024-02-14T06:17:01;11.97;;;10.07;;
9720;SDS011;4899;42.644;23.366;2024-02-14T06:19:27;10.90;;;9.80;;
9720;SDS011;4899;42.644;23.366;2024-02-14T06:21:52;10.47;;;9.43;;
9720;SDS011;4899;42.644;23.366;2024-02-14T06:24:18;11.20;;;9.27;;
9720;SDS011;4899;42.644;23.366;2024-02-14T06:26:44;12.67;;;10.20;;
9720;SDS011;4899;42.644;23.366;2024-02-14T06:29:09;10.63;;;9.53;;
9720;SDS011;4899;42.644;23.366;2024-02-14T06:31:34;12.03;;;10.13;;
9720;SDS011;4899;42.644;23.366;2024-02-14T06:34:00;11.00;;;9.60;;
9720;SDS011;4899;42.644;23.366;2024-02-14T06:36:25;10.63;;;9.57;;
9720;SDS011;4899;42.644;23.366;2024-02-14T06:38:50;11.23;;;10.03;;
9720;SDS011;4899;42.644;23.366;2024-02-14T06:41:16;9.07;;;8.17;;
9720;SDS011;4899;42.644;23.366;2024-02-14T06:43:41;10.23;;;8.97;;
9720;SDS011;4899;42.644;23.366;2024-02-14T06:46:06;9.37;;;8.40;;
9720;SDS011;4899;42.644;23.366;2024-02-14T06:48:32;13.47;;;9.30;;
9720;SDS011;4899;42.644;23.366;2024-02-14T06:50:57;9.67;;;8.80;;
9720;SDS011;4899;42.644;23.366;2024-02-14T06:53:23;10.27;;;8.93;;
9720;SDS011;4899;42.644;23.366;2024-02-14T06:55:48;10.53;;;9.53;;
9720;SDS011;4899;42.644;23.366;2024-02-14T06:58:13;9.30;;;8.50;;
9720;SDS011;4899;42.644;23.366;2024-02-14T07:00:39;12.27;;;9.07;;
9720;SDS011;4899;42.644;23.366;2024-02-14T07:03:04;8.63;;;7.83;;
9720;SDS011;4899;42.644;23.366;2024-02-14T07:05:30;8.77;;;7.87;;
9720;SDS011;4899;42.644;23.366;2024-02-14T07:07:55;9.57;;;8.57;;
9720;SDS011;4899;42.644;23.366;2024-02-14T07:10:21;12.10;;;9.17;;
9720;SDS011;4899;42.644;23.366;2024-02-14T07:12:46;11.27;;;9.43;;
9720;SDS011;4899;42.644;23.366;2024-02-14T07:15:11;9.20;;;8.30;;
9720;SDS011;4899;42.644;23.366;2024-02-14T07:17:37;9.47;;;8.47;;
9720;SDS011;4899;42.644;23.366;2024-02-14T07:20:03;11.00;;;8.93;;
9720;SDS011;4899;42.644;23.366;2024-02-14T07:22:29;10.07;;;8.23;;
9720;SDS011;4899;42.644;23.366;2024-02-14T07:24:55;9.57;;;7.83;;
9720;SDS011;4899;42.644;23.366;2024-02-14T07:27:21;8.13;;;7.43;;
9720;SDS011;4899;42.644;23.366;2024-02-14T07:29:46;8.30;;;7.50;;
9720;SDS011;4899;42.644;23.366;2024-02-14T07:32:12;9.47;;;8.00;;
9720;SDS011;4899;42.644;23.366;2024-02-14T07:34:40;8.33;;;7.47;;
9720;SDS011;4899;42.644;23.366;2024-02-14T07:37:06;8.37;;;7.43;;
9720;SDS011;4899;42.644;23.366;2024-02-14T07:39:31;7.90;;;7.20;;
9720;SDS011;4899;42.644;23.366;2024-02-14T07:41:57;9.47;;;8.50;;
9720;SDS011;4899;42.644;23.366;2024-02-14T07:44:22;7.03;;;6.33;;
9720;SDS011;4899;42.644;23.366;2024-02-14T07:46:51;7.80;;;7.10;;
9720;SDS011;4899;42.644;23.366;2024-02-14T07:49:17;8.57;;;6.77;;
9720;SDS011;4899;42.644;23.366;2024-02-14T07:51:42;8.73;;;7.83;;
9720;SDS011;4899;42.644;23.366;2024-02-14T07:54:08;8.33;;;7.60;;
9720;SDS011;4899;42.644;23.366;2024-02-14T07:56:33;8.70;;;7.70;;
9720;SDS011;4899;42.644;23.366;2024-02-14T07:58:58;9.07;;;7.93;;
9720;SDS011;4899;42.644;23.366;2024-02-14T08:01:24;9.20;;;7.87;;
9720;SDS011;4899;42.644;23.366;2024-02-14T08:03:50;7.63;;;6.93;;
9720;SDS011;4899;42.644;23.366;2024-02-14T08:06:15;8.17;;;7.43;;
9720;SDS011;4899;42.644;23.366;2024-02-14T08:08:41;8.13;;;7.33;;
9720;SDS011;4899;42.644;23.366;2024-02-14T08:11:06;7.47;;;6.40;;
9720;SDS011;4899;42.644;23.366;2024-02-14T08:13:32;8.37;;;7.57;;
9720;SDS011;4899;42.644;23.366;2024-02-14T08:15:57;8.00;;;6.90;;
9720;SDS011;4899;42.644;23.366;2024-02-14T08:18:23;9.17;;;8.10;;
9720;SDS011;4899;42.644;23.366;2024-02-14T08:20:49;10.23;;;8.07;;
9720;SDS011;4899;42.644;23.366;2024-02-14T08:23:14;7.70;;;7.00;;
9720;SDS011;4899;42.644;23.366;2024-02-14T08:25:39;8.40;;;7.60;;
9720;SDS011;4899;42.644;23.366;2024-02-14T08:28:06;11.37;;;7.37;;
9720;SDS011;4899;42.644;23.366;2024-02-14T08:30:32;9.77;;;8.77;;
9720;SDS011;4899;42.644;23.366;2024-02-14T08:32:58;8.87;;;8.07;;
9720;SDS011;4899;42.644;23.366;2024-02-14T08:35:23;7.97;;;7.27;;
9720;SDS011;4899;42.644;23.366;2024-02-14T08:37:48;8.57;;;7.77;;
9720;SDS011;4899;42.644;23.366;2024-02-14T08:40:14;7.63;;;6.90;;
9720;SDS011;4899;42.644;23.366;2024-02-14T08:42:39;8.03;;;7.23;;
9720;SDS011;4899;42.644;23.366;2024-02-14T08:45:05;7.00;;;6.40;;
9720;SDS011;4899;42.644;23.366;2024-02-14T08:47:30;8.27;;;7.47;;
9720;SDS011;4899;42.644;23.366;2024-02-14T08:49:55;7.43;;;6.63;;
9720;SDS011;4899;42.644;23.366;2024-02-14T08:52:21;6.57;;;5.97;;
9720;SDS011;4899;42.644;23.366;2024-02-14T08:54:46;7.73;;;7.03;;
9720;SDS011;4899;42.644;23.366;2024-02-14T08:57:12;7.43;;;6.73;;
9720;SDS011;4899;42.644;23.366;2024-02-14T08:59:37;6.80;;;6.20;;
9720;SDS011;4899;42.644;23.366;2024-02-14T09:02:03;7.70;;;7.00;;
9720;SDS011;4899;42.644;23.366;2024-02-14T09:04:28;6.43;;;5.83;;
9720;SDS011;4899;42.644;23.366;2024-02-14T09:06:53;7.03;;;6.43;;
9720;SDS011;4899;42.644;23.366;2024-02-14T09:09:18;7.23;;;6.57;;
9720;SDS011;4899;42.644;23.366;2024-02-14T09:11:44;6.93;;;6.23;;
9720;SDS011;4899;42.644;23.366;2024-02-14T09:14:11;9.63;;;6.90;;
9720;SDS011;4899;42.644;23.366;2024-02-14T09:16:36;8.07;;;7.27;;
9720;SDS011;4899;42.644;23.366;2024-02-14T09:19:02;6.80;;;6.30;;
9720;SDS011;4899;42.644;23.366;2024-02-14T09:21:28;8.13;;;7.43;;
9720;SDS011;4899;42.644;23.366;2024-02-14T09:23:53;7.20;;;6.50;;
9720;SDS011;4899;42.644;23.366;2024-02-14T09:26:19;8.07;;;7.27;;
9720;SDS011;4899;42.644;23.366;2024-02-14T09:28:44;7.37;;;6.53;;
9720;SDS011;4899;42.644;23.366;2024-02-14T09:31:10;7.73;;;7.03;;
9720;SDS011;4899;42.644;23.366;2024-02-14T09:33:39;6.87;;;6.33;;
9720;SDS011;4899;42.644;23.366;2024-02-14T09:36:05;9.13;;;8.17;;
9720;SDS011;4899;42.644;23.366;2024-02-14T09:38:30;8.10;;;7.30;;
9720;SDS011;4899;42.644;23.366;2024-02-14T09:41:06;7.77;;;6.93;;
9720;SDS011;4899;42.644;23.366;2024-02-14T09:43:34;7.30;;;6.60;;
9720;SDS011;4899;42.644;23.366;2024-02-14T09:46:01;7.60;;;6.70;;
9720;SDS011;4899;42.644;23.366;2024-02-14T09:48:28;7.83;;;7.03;;
9720;SDS011;4899;42.644;23.366;2024-02-14T09:50:54;8.50;;;7.60;;
9720;SDS011;4899;42.644;23.366;2024-02-14T09:53:20;8.10;;;7.40;;
9720;SDS011;4899;42.644;23.366;2024-02-14T09:55:46;9.00;;;7.03;;
9720;SDS011;4899;42.644;23.366;2024-02-14T09:58:12;7.80;;;7.13;;
9720;SDS011;4899;42.644;23.366;2024-02-14T10:00:37;7.60;;;6.90;;
9720;SDS011;4899;42.644;23.366;2024-02-14T10:03:03;7.70;;;7.00;;
9720;SDS011;4899;42.644;23.366;2024-02-14T10:05:28;7.13;;;6.43;;
9720;SDS011;4899;42.644;23.366;2024-02-14T10:07:54;6.60;;;6.00;;
9720;SDS011;4899;42.644;23.366;2024-02-14T10:10:21;9.20;;;8.27;;
9720;SDS011;4899;42.644;23.366;2024-02-14T10:12:46;8.17;;;7.43;;
9720;SDS011;4899;42.644;23.366;2024-02-14T10:15:11;7.73;;;6.97;;
9720;SDS011;4899;42.644;23.366;2024-02-14T10:17:38;7.23;;;6.53;;
9720;SDS011;4899;42.644;23.366;2024-02-14T10:20:05;7.87;;;7.07;;
9720;SDS011;4899;42.644;23.366;2024-02-14T10:22:34;7.70;;;6.90;;
9720;SDS011;4899;42.644;23.366;2024-02-14T10:25:01;9.40;;;7.07;;
9720;SDS011;4899;42.644;23.366;2024-02-14T10:27:26;7.77;;;7.07;;
9720;SDS011;4899;42.644;23.366;2024-02-14T10:29:51;8.60;;;7.87;;
9720;SDS011;4899;42.644;23.366;2024-02-14T10:32:17;7.47;;;6.77;;
9720;SDS011;4899;42.644;23.366;2024-02-14T10:34:43;7.60;;;6.90;;
9720;SDS011;4899;42.644;23.366;2024-02-14T10:37:10;7.27;;;6.53;;
9720;SDS011;4899;42.644;23.366;2024-02-14T10:39:38;7.07;;;6.37;;
9720;SDS011;4899;42.644;23.366;2024-02-14T10:42:06;8.77;;;7.23;;
9720;SDS011;4899;42.644;23.366;2024-02-14T10:44:31;8.10;;;7.30;;
9720;SDS011;4899;42.644;23.366;2024-02-14T10:46:57;9.13;;;6.87;;
9720;SDS011;4899;42.644;23.366;2024-02-14T10:49:25;7.20;;;6.40;;
9720;SDS011;4899;42.644;23.366;2024-02-14T10:51:52;7.03;;;6.33;;
9720;SDS011;4899;42.644;23.366;2024-02-14T10:54:19;8.10;;;7.13;;
9720;SDS011;4899;42.644;23.366;2024-02-14T10:56:46;6.80;;;6.20;;
9720;SDS011;4899;42.644;23.366;2024-02-14T10:59:15;6.77;;;6.07;;
9720;SDS011;4899;42.644;23.366;2024-02-14T11:01:42;7.47;;;6.77;;
9720;SDS011;4899;42.644;23.366;2024-02-14T11:04:08;7.40;;;6.63;;
9720;SDS011;4899;42.644;23.366;2024-02-14T11:06:49;7.23;;;6.63;;
9720;SDS011;4899;42.644;23.366;2024-02-14T11:09:18;7.63;;;6.70;;
9720;SDS011;4899;42.644;23.366;2024-02-14T11:11:46;9.17;;;7.43;;
9720;SDS011;4899;42.644;23.366;2024-02-14T11:14:15;7.50;;;6.43;;
9720;SDS011;4899;42.644;23.366;2024-02-14T11:16:41;6.83;;;6.23;;
9720;SDS011;4899;42.644;23.366;2024-02-14T11:19:11;7.30;;;6.43;;
9720;SDS011;4899;42.644;23.366;2024-02-14T11:21:40;6.33;;;5.80;;
9720;SDS011;4899;42.644;23.366;2024-02-14T11:24:10;7.87;;;6.77;;
9720;SDS011;4899;42.644;23.366;2024-02-14T11:26:40;7.70;;;6.97;;
9720;SDS011;4899;42.644;23.366;2024-02-14T11:29:05;7.07;;;6.37;;
9720;SDS011;4899;42.644;23.366;2024-02-14T11:31:33;7.37;;;6.43;;
9720;SDS011;4899;42.644;23.366;2024-02-14T11:34:02;6.43;;;5.83;;
9720;SDS011;4899;42.644;23.366;2024-02-14T11:36:28;6.50;;;5.90;;
9720;SDS011;4899;42.644;23.366;2024-02-14T11:38:54;6.70;;;6.10;;
9720;SDS011;4899;42.644;23.366;2024-02-14T11:41:20;7.37;;;6.67;;
9720;SDS011;4899;42.644;23.366;2024-02-14T11:43:51;7.13;;;6.43;;
9720;SDS011;4899;42.644;23.366;2024-02-14T11:46:17;7.67;;;6.97;;
9720;SDS011;4899;42.644;23.366;2024-02-14T11:48:43;7.50;;;6.60;;
9720;SDS011;4899;42.644;23.366;2024-02-14T11:51:10;8.33;;;6.67;;
9720;SDS011;4899;42.644;23.366;2024-02-14T11:53:36;7.57;;;6.73;;
9720;SDS011;4899;42.644;23.366;2024-02-14T11:56:01;6.70;;;6.07;;
9720;SDS011;4899;42.644;23.366;2024-02-14T11:58:27;7.13;;;6.43;;
9720;SDS011;4899;42.644;23.366;2024-02-14T12:00:52;9.33;;;7.17;;
9720;SDS011;4899;42.644;23.366;2024-02-14T12:03:19;6.80;;;6.13;;
9720;SDS011;4899;42.644;23.366;2024-02-14T12:05:46;9.43;;;6.40;;
9720;SDS011;4899;42.644;23.366;2024-02-14T12:08:12;7.60;;;6.90;;
9720;SDS011;4899;42.644;23.366;2024-02-14T12:10:37;7.17;;;6.57;;
9720;SDS011;4899;42.644;23.366;2024-02-14T12:13:09;8.20;;;6.37;;
9720;SDS011;4899;42.644;23.366;2024-02-14T12:15:37;6.83;;;6.23;;
9720;SDS011;4899;42.644;23.366;2024-02-14T12:18:02;7.83;;;7.03;;
9720;SDS011;4899;42.644;23.366;2024-02-14T12:20:28;7.57;;;6.77;;
9720;SDS011;4899;42.644;23.366;2024-02-14T12:22:53;6.90;;;6.20;;
9720;SDS011;4899;42.644;23.366;2024-02-14T12:25:19;7.03;;;5.93;;
9720;SDS011;4899;42.644;23.366;2024-02-14T12:27:49;6.73;;;6.10;;
9720;SDS011;4899;42.644;23.366;2024-02-14T12:30:15;8.67;;;6.67;;
9720;SDS011;4899;42.644;23.366;2024-02-14T12:32:40;6.53;;;5.93;;
9720;SDS011;4899;42.644;23.366;2024-02-14T12:35:06;6.33;;;5.73;;
9720;SDS011;4899;42.644;23.366;2024-02-14T12:37:32;7.07;;;6.37;;
9720;SDS011;4899;42.644;23.366;2024-02-14T12:39:57;7.47;;;6.20;;
9720;SDS011;4899;42.644;23.366;2024-02-14T12:42:22;7.23;;;6.10;;
9720;SDS011;4899;42.644;23.366;2024-02-14T12:44:51;7.73;;;6.20;;
9720;SDS011;4899;42.644;23.366;2024-02-14T12:47:17;6.00;;;5.40;;
9720;SDS011;4899;42.644;23.366;2024-02-14T12:49:43;6.80;;;6.10;;
9720;SDS011;4899;42.644;23.366;2024-02-14T12:52:08;7.23;;;6.53;;
9720;SDS011;4899;42.644;23.366;2024-02-14T12:54:33;6.77;;;5.80;;
9720;SDS011;4899;42.644;23.366;2024-02-14T12:56:59;6.80;;;6.20;;
9720;SDS011;4899;42.644;23.366;2024-02-14T12:59:24;7.17;;;6.20;;
9720;SDS011;4899;42.644;23.366;2024-02-14T13:01:49;7.53;;;6.10;;
9720;SDS011;4899;42.644;23.366;2024-02-14T13:04:15;5.97;;;5.47;;
9720;SDS011;4899;42.644;23.366;2024-02-14T13:06:41;6.53;;;5.90;;
9720;SDS011;4899;42.644;23.366;2024-02-14T13:09:07;7.40;;;6.20;;
9720;SDS011;4899;42.644;23.366;2024-02-14T13:11:33;5.50;;;5.10;;
9720;SDS011;4899;42.644;23.366;2024-02-14T13:13:58;5.83;;;5.23;;
9720;SDS011;4899;42.644;23.366;2024-02-14T13:16:24;7.67;;;6.07;;
9720;SDS011;4899;42.644;23.366;2024-02-14T13:18:49;8.67;;;6.77;;
9720;SDS011;4899;42.644;23.366;2024-02-14T13:21:15;6.17;;;5.60;;
9720;SDS011;4899;42.644;23.366;2024-02-14T13:23:41;7.17;;;6.10;;
9720;SDS011;4899;42.644;23.366;2024-02-14T13:26:07;7.40;;;6.33;;
9720;SDS011;4899;42.644;23.366;2024-02-14T13:28:32;8.20;;;6.60;;
9720;SDS011;4899;42.644;23.366;2024-02-14T13:30:58;5.90;;;5.00;;
9720;SDS011;4899;42.644;23.366;2024-02-14T13:33:23;6.20;;;5.60;;
9720;SDS011;4899;42.644;23.366;2024-02-14T13:35:49;6.77;;;6.03;;
9720;SDS011;4899;42.644;23.366;2024-02-14T13:38:14;7.20;;;6.50;;
9720;SDS011;4899;42.644;23.366;2024-02-14T13:40:39;7.83;;;6.57;;
9720;SDS011;4899;42.644;23.366;2024-02-14T13:43:04;8.27;;;6.43;;
9720;SDS011;4899;42.644;23.366;2024-02-14T13:45:43;9.27;;;6.97;;
9720;SDS011;4899;42.644;23.366;2024-02-14T13:48:08;8.30;;;6.13;;
9720;SDS011;4899;42.644;23.366;2024-02-14T13:50:34;7.53;;;6.07;;
9720;SDS011;4899;42.644;23.366;2024-02-14T13:53:00;9.73;;;6.63;;
9720;SDS011;4899;42.644;23.366;2024-02-14T13:55:25;9.40;;;7.03;;
9720;SDS011;4899;42.644;23.366;2024-02-14T13:57:50;9.00;;;6.37;;
9720;SDS011;4899;42.644;23.366;2024-02-14T14:00:16;8.83;;;7.00;;
9720;SDS011;4899;42.644;23.366;2024-02-14T14:02:41;7.87;;;7.07;;
9720;SDS011;4899;42.644;23.366;2024-02-14T14:05:10;8.17;;;6.93;;
9720;SDS011;4899;42.644;23.366;2024-02-14T14:07:36;9.50;;;6.47;;
9720;SDS011;4899;42.644;23.366;2024-02-14T14:10:02;7.20;;;6.50;;
9720;SDS011;4899;42.644;23.366;2024-02-14T14:12:28;6.80;;;5.70;;
9720;SDS011;4899;42.644;23.366;2024-02-14T14:14:53;7.00;;;5.93;;
9720;SDS011;4899;42.644;23.366;2024-02-14T14:17:18;5.20;;;4.70;;
9720;SDS011;4899;42.644;23.366;2024-02-14T14:19:43;5.93;;;5.20;;
9720;SDS011;4899;42.644;23.366;2024-02-14T14:22:09;6.10;;;5.50;;
9720;SDS011;4899;42.644;23.366;2024-02-14T14:24:34;6.80;;;5.77;;
9720;SDS011;4899;42.644;23.366;2024-02-14T14:26:59;9.33;;;6.30;;
9720;SDS011;4899;42.644;23.366;2024-02-14T14:29:25;10.53;;;6.00;;
9720;SDS011;4899;42.644;23.366;2024-02-14T14:31:50;6.50;;;5.83;;
9720;SDS011;4899;42.644;23.366;2024-02-14T14:34:16;5.97;;;5.40;;
9720;SDS011;4899;42.644;23.366;2024-02-14T14:36:41;6.63;;;5.80;;
9720;SDS011;4899;42.644;23.366;2024-02-14T14:39:06;6.57;;;5.37;;
9720;SDS011;4899;42.644;23.366;2024-02-14T14:41:32;8.57;;;5.53;;
9720;SDS011;4899;42.644;23.366;2024-02-14T14:43:57;6.53;;;5.80;;
9720;SDS011;4899;42.644;23.366;2024-02-14T14:46:22;5.97;;;5.37;;
9720;SDS011;4899;42.644;23.366;2024-02-14T14:48:48;6.83;;;6.13;;